Pagrindinis puslapis
METAR-TAF:

METAR-TAF

Oro uostai :

Santa Marija, Pietų Rio Grandė, Brazilija

platuma: 29-43S, ilguma: 053-42W, Aukštis: 85 m

Dabartinis oras

Ataskaita buvo paskelbta 1 valandą ir 18 minutes, ne 21:00 UTC
Vėjas 11 kt iš Pietryčių, svyruoja nuo Rytų ir Pietų/Pietryčių
Temperatūra 18°C
Drėgmė 88%
Slėgis 1013 hPa
Matomumas 10 km arba daugiau
Su prošvaistėmis ne aukštis 1100 ft

METAR: SBSM 162100Z 13011KT 100V160 9999 BKN011 18/16 Q1013

Laikas: 19:18 (22:18 UTC)

Prognozė

Ataskaita buvo paskelbta 6 valandos ir 18 minutes, ne 16:00 UTC
Prognozė galioja nuo 16 metu 18 UTC su 17 metu 06 UTC
Vėjas 8 kt iš Vakarų
Matomumas: 8000 m
Išsisklaidę debesys ne aukštis 2000 ft
Mažai debesys ne aukštis 2500 ft, aukštai iškilę kamuoliniai debesys.
Tapsmas
nuo 16 metu 22 UTC su 16 metu 24 UTC
Su prošvaistėmis ne aukštis 1300 ft
Išsisklaidę debesys ne aukštis 600 ft

TAF: SBSM 161600Z 1618/1706 27008KT 8000 SCT020 FEW025TCU TX19/1618Z TN15/1705Z BECMG 1622/1624 BKN013 SCT006 RMK PDU

Orai ataskaitas ir orų prognozės (METAR, TAF).

turimą stotys yra geltonos ir raudonos taškus žemėlapyje.

Perkelti pele per norėdami pamatyti stoties vardą.

Tada spustelėkite, norėdami matyti oro stebėjimo ir prognozės.

Norėdami pakeisti žemėlapį: spustelėkite ant žalios mygtukų su juodo kryžiaus žemyn,; žalią mygtuką su brūkšneliu, jei norite nutolinti; arba žalių rodyklių gretimoms žemėlapius.


METAR-TAF: